sensor_id;sensor_type;location;lat;lon;timestamp;temperature;humidity
2867;DHT22;1441;48.886;8.728;2023-02-01T00:01:46;4.60;99.90
2867;DHT22;1441;48.886;8.728;2023-02-01T00:04:12;4.70;99.90
2867;DHT22;1441;48.886;8.728;2023-02-01T00:06:37;4.70;99.90
2867;DHT22;1441;48.886;8.728;2023-02-01T00:09:03;4.70;99.90
2867;DHT22;1441;48.886;8.728;2023-02-01T00:11:29;4.80;99.90
2867;DHT22;1441;48.886;8.728;2023-02-01T00:13:55;4.70;99.90
2867;DHT22;1441;48.886;8.728;2023-02-01T00:16:21;4.70;99.90
2867;DHT22;1441;48.886;8.728;2023-02-01T00:18:50;4.70;99.90
2867;DHT22;1441;48.886;8.728;2023-02-01T00:21:19;4.80;99.90
2867;DHT22;1441;48.886;8.728;2023-02-01T00:23:45;4.90;99.90
2867;DHT22;1441;48.886;8.728;2023-02-01T00:26:14;4.80;99.90
2867;DHT22;1441;48.886;8.728;2023-02-01T00:28:40;4.80;99.90
2867;DHT22;1441;48.886;8.728;2023-02-01T00:31:06;4.90;99.90
2867;DHT22;1441;48.886;8.728;2023-02-01T00:33:32;4.90;99.90
2867;DHT22;1441;48.886;8.728;2023-02-01T00:36:05;4.90;99.90
2867;DHT22;1441;48.886;8.728;2023-02-01T00:38:32;4.80;99.90
2867;DHT22;1441;48.886;8.728;2023-02-01T00:41:17;4.80;99.90
2867;DHT22;1441;48.886;8.728;2023-02-01T00:43:43;4.80;99.90
2867;DHT22;1441;48.886;8.728;2023-02-01T00:46:10;4.80;99.90
2867;DHT22;1441;48.886;8.728;2023-02-01T00:48:36;4.80;99.90
2867;DHT22;1441;48.886;8.728;2023-02-01T00:51:03;4.80;99.90
2867;DHT22;1441;48.886;8.728;2023-02-01T00:53:30;4.80;99.90
2867;DHT22;1441;48.886;8.728;2023-02-01T00:55:56;4.90;99.90
2867;DHT22;1441;48.886;8.728;2023-02-01T00:58:22;4.90;99.90
2867;DHT22;1441;48.886;8.728;2023-02-01T01:01:00;5.00;99.90
2867;DHT22;1441;48.886;8.728;2023-02-01T01:03:26;5.00;99.90
2867;DHT22;1441;48.886;8.728;2023-02-01T01:05:56;5.00;99.90
2867;DHT22;1441;48.886;8.728;2023-02-01T01:08:22;5.00;99.90
2867;DHT22;1441;48.886;8.728;2023-02-01T01:10:48;5.00;99.90
2867;DHT22;1441;48.886;8.728;2023-02-01T01:13:15;5.00;99.90
2867;DHT22;1441;48.886;8.728;2023-02-01T01:15:41;5.10;99.90
2867;DHT22;1441;48.886;8.728;2023-02-01T01:18:07;5.10;99.90
2867;DHT22;1441;48.886;8.728;2023-02-01T01:20:39;5.00;99.90
2867;DHT22;1441;48.886;8.728;2023-02-01T01:23:05;5.00;99.90
2867;DHT22;1441;48.886;8.728;2023-02-01T01:25:31;5.10;99.90
2867;DHT22;1441;48.886;8.728;2023-02-01T01:27:57;5.10;99.90
2867;DHT22;1441;48.886;8.728;2023-02-01T01:30:22;5.00;99.90
2867;DHT22;1441;48.886;8.728;2023-02-01T01:32:48;5.10;99.90
2867;DHT22;1441;48.886;8.728;2023-02-01T01:35:14;5.10;99.90
2867;DHT22;1441;48.886;8.728;2023-02-01T01:37:39;5.10;99.90
2867;DHT22;1441;48.886;8.728;2023-02-01T01:40:07;5.10;99.90
2867;DHT22;1441;48.886;8.728;2023-02-01T01:42:40;5.00;99.90
2867;DHT22;1441;48.886;8.728;2023-02-01T01:45:07;5.00;99.90
2867;DHT22;1441;48.886;8.728;2023-02-01T01:47:47;5.10;99.90
2867;DHT22;1441;48.886;8.728;2023-02-01T01:50:17;5.10;99.90
2867;DHT22;1441;48.886;8.728;2023-02-01T01:52:46;5.10;99.90
2867;DHT22;1441;48.886;8.728;2023-02-01T01:55:14;5.00;99.90
2867;DHT22;1441;48.886;8.728;2023-02-01T01:57:45;5.10;99.90
2867;DHT22;1441;48.886;8.728;2023-02-01T02:00:13;5.00;99.90
2867;DHT22;1441;48.886;8.728;2023-02-01T02:02:42;5.00;99.90
2867;DHT22;1441;48.886;8.728;2023-02-01T02:05:08;5.00;99.90
2867;DHT22;1441;48.886;8.728;2023-02-01T02:07:37;5.10;99.90
2867;DHT22;1441;48.886;8.728;2023-02-01T02:10:08;5.10;99.90
2867;DHT22;1441;48.886;8.728;2023-02-01T02:12:39;5.00;99.90
2867;DHT22;1441;48.886;8.728;2023-02-01T02:15:07;5.00;99.90
2867;DHT22;1441;48.886;8.728;2023-02-01T02:17:40;5.10;99.90
2867;DHT22;1441;48.886;8.728;2023-02-01T02:23:26;5.10;99.90
2867;DHT22;1441;48.886;8.728;2023-02-01T02:29:04;5.10;99.90
2867;DHT22;1441;48.886;8.728;2023-02-01T02:31:40;5.20;99.90
2867;DHT22;1441;48.886;8.728;2023-02-01T02:34:32;5.20;99.90
2867;DHT22;1441;48.886;8.728;2023-02-01T02:37:38;5.20;99.90
2867;DHT22;1441;48.886;8.728;2023-02-01T02:40:14;5.20;99.90
2867;DHT22;1441;48.886;8.728;2023-02-01T02:49:12;5.10;99.90
2867;DHT22;1441;48.886;8.728;2023-02-01T02:51:55;5.20;99.90
2867;DHT22;1441;48.886;8.728;2023-02-01T02:54:43;5.10;99.90
2867;DHT22;1441;48.886;8.728;2023-02-01T02:57:32;5.10;99.90
2867;DHT22;1441;48.886;8.728;2023-02-01T03:00:19;5.10;99.90
2867;DHT22;1441;48.886;8.728;2023-02-01T03:03:05;5.20;99.90
2867;DHT22;1441;48.886;8.728;2023-02-01T03:05:50;5.20;99.90
2867;DHT22;1441;48.886;8.728;2023-02-01T03:08:21;5.10;99.90
2867;DHT22;1441;48.886;8.728;2023-02-01T03:10:57;5.20;99.90
2867;DHT22;1441;48.886;8.728;2023-02-01T03:13:38;5.20;99.90
2867;DHT22;1441;48.886;8.728;2023-02-01T03:18:42;5.10;99.90
2867;DHT22;1441;48.886;8.728;2023-02-01T03:21:14;5.10;99.90
2867;DHT22;1441;48.886;8.728;2023-02-01T03:23:42;5.10;99.90
2867;DHT22;1441;48.886;8.728;2023-02-01T03:26:12;5.20;99.90
2867;DHT22;1441;48.886;8.728;2023-02-01T03:28:43;5.10;99.90
2867;DHT22;1441;48.886;8.728;2023-02-01T03:31:10;5.20;99.90
2867;DHT22;1441;48.886;8.728;2023-02-01T03:33:36;5.20;99.90
2867;DHT22;1441;48.886;8.728;2023-02-01T03:36:14;5.20;99.90
2867;DHT22;1441;48.886;8.728;2023-02-01T03:41:44;5.00;99.90
2867;DHT22;1441;48.886;8.728;2023-02-01T03:44:21;5.00;99.90
2867;DHT22;1441;48.886;8.728;2023-02-01T03:47:06;5.00;99.90
2867;DHT22;1441;48.886;8.728;2023-02-01T03:49:35;5.00;99.90
2867;DHT22;1441;48.886;8.728;2023-02-01T03:52:03;5.00;99.90
2867;DHT22;1441;48.886;8.728;2023-02-01T03:54:31;5.10;99.90
2867;DHT22;1441;48.886;8.728;2023-02-01T03:57:01;5.10;99.90
2867;DHT22;1441;48.886;8.728;2023-02-01T03:59:27;5.10;99.90
2867;DHT22;1441;48.886;8.728;2023-02-01T04:01:52;5.10;99.90
2867;DHT22;1441;48.886;8.728;2023-02-01T04:04:18;5.10;99.90
2867;DHT22;1441;48.886;8.728;2023-02-01T04:06:50;5.20;99.90
2867;DHT22;1441;48.886;8.728;2023-02-01T04:09:16;5.10;99.90
2867;DHT22;1441;48.886;8.728;2023-02-01T04:11:42;5.10;99.90
2867;DHT22;1441;48.886;8.728;2023-02-01T04:14:08;5.10;99.90
2867;DHT22;1441;48.886;8.728;2023-02-01T04:16:33;5.20;99.90
2867;DHT22;1441;48.886;8.728;2023-02-01T04:19:00;5.10;99.90
2867;DHT22;1441;48.886;8.728;2023-02-01T04:21:26;5.20;99.90
2867;DHT22;1441;48.886;8.728;2023-02-01T04:23:52;5.30;99.90
2867;DHT22;1441;48.886;8.728;2023-02-01T04:26:18;5.20;99.90
2867;DHT22;1441;48.886;8.728;2023-02-01T04:28:45;5.20;99.90
2867;DHT22;1441;48.886;8.728;2023-02-01T04:31:13;5.20;99.90
2867;DHT22;1441;48.886;8.728;2023-02-01T04:33:39;5.30;99.90
2867;DHT22;1441;48.886;8.728;2023-02-01T04:36:04;5.20;99.90
2867;DHT22;1441;48.886;8.728;2023-02-01T04:38:30;5.20;99.90
2867;DHT22;1441;48.886;8.728;2023-02-01T04:40:57;5.20;99.90
2867;DHT22;1441;48.886;8.728;2023-02-01T04:43:23;5.10;99.90
2867;DHT22;1441;48.886;8.728;2023-02-01T04:45:49;5.10;99.90
2867;DHT22;1441;48.886;8.728;2023-02-01T04:48:16;5.20;99.90
2867;DHT22;1441;48.886;8.728;2023-02-01T04:50:43;5.10;99.90
2867;DHT22;1441;48.886;8.728;2023-02-01T04:53:11;5.20;99.90
2867;DHT22;1441;48.886;8.728;2023-02-01T04:55:37;5.10;99.90
2867;DHT22;1441;48.886;8.728;2023-02-01T04:58:02;5.10;99.90
2867;DHT22;1441;48.886;8.728;2023-02-01T05:00:28;5.10;99.90
2867;DHT22;1441;48.886;8.728;2023-02-01T05:02:53;5.20;99.90
2867;DHT22;1441;48.886;8.728;2023-02-01T05:05:19;5.20;99.90
2867;DHT22;1441;48.886;8.728;2023-02-01T05:07:46;5.10;99.90
2867;DHT22;1441;48.886;8.728;2023-02-01T05:10:12;5.10;99.90
2867;DHT22;1441;48.886;8.728;2023-02-01T05:12:37;5.10;99.90
2867;DHT22;1441;48.886;8.728;2023-02-01T05:15:26;5.10;99.90
2867;DHT22;1441;48.886;8.728;2023-02-01T05:17:52;5.10;99.90
2867;DHT22;1441;48.886;8.728;2023-02-01T05:20:17;5.00;99.90
2867;DHT22;1441;48.886;8.728;2023-02-01T05:22:43;5.10;99.90
2867;DHT22;1441;48.886;8.728;2023-02-01T05:25:08;5.00;99.90
2867;DHT22;1441;48.886;8.728;2023-02-01T05:27:34;5.00;99.90
2867;DHT22;1441;48.886;8.728;2023-02-01T05:30:00;5.00;99.90
2867;DHT22;1441;48.886;8.728;2023-02-01T05:32:25;4.90;99.90
2867;DHT22;1441;48.886;8.728;2023-02-01T05:34:51;4.90;99.90
2867;DHT22;1441;48.886;8.728;2023-02-01T05:37:16;4.80;99.90
2867;DHT22;1441;48.886;8.728;2023-02-01T05:39:42;4.80;99.90
2867;DHT22;1441;48.886;8.728;2023-02-01T05:42:07;4.70;99.90
2867;DHT22;1441;48.886;8.728;2023-02-01T05:44:33;4.70;99.90
2867;DHT22;1441;48.886;8.728;2023-02-01T05:46:59;4.70;99.90
2867;DHT22;1441;48.886;8.728;2023-02-01T05:49:24;4.70;99.90
2867;DHT22;1441;48.886;8.728;2023-02-01T05:51:50;4.70;99.90
2867;DHT22;1441;48.886;8.728;2023-02-01T05:54:15;4.70;99.90
2867;DHT22;1441;48.886;8.728;2023-02-01T05:56:41;4.70;99.90
2867;DHT22;1441;48.886;8.728;2023-02-01T05:59:06;4.70;99.90
2867;DHT22;1441;48.886;8.728;2023-02-01T06:01:33;4.70;99.90
2867;DHT22;1441;48.886;8.728;2023-02-01T06:03:58;4.70;99.90
2867;DHT22;1441;48.886;8.728;2023-02-01T06:06:24;4.80;99.90
2867;DHT22;1441;48.886;8.728;2023-02-01T06:08:49;4.80;99.90
2867;DHT22;1441;48.886;8.728;2023-02-01T06:11:15;4.80;99.90
2867;DHT22;1441;48.886;8.728;2023-02-01T06:13:40;4.80;99.90
2867;DHT22;1441;48.886;8.728;2023-02-01T06:16:07;4.80;99.90
2867;DHT22;1441;48.886;8.728;2023-02-01T06:18:34;4.90;99.90
2867;DHT22;1441;48.886;8.728;2023-02-01T06:21:00;4.80;99.90
2867;DHT22;1441;48.886;8.728;2023-02-01T06:23:26;4.90;99.90
2867;DHT22;1441;48.886;8.728;2023-02-01T06:25:57;4.80;99.90
2867;DHT22;1441;48.886;8.728;2023-02-01T06:28:25;4.90;99.90
2867;DHT22;1441;48.886;8.728;2023-02-01T06:30:50;4.80;99.90
2867;DHT22;1441;48.886;8.728;2023-02-01T06:33:16;4.90;99.90
2867;DHT22;1441;48.886;8.728;2023-02-01T06:35:42;4.90;99.90
2867;DHT22;1441;48.886;8.728;2023-02-01T06:38:12;4.90;99.90
2867;DHT22;1441;48.886;8.728;2023-02-01T06:40:39;4.90;99.90
2867;DHT22;1441;48.886;8.728;2023-02-01T06:43:06;4.90;99.90
2867;DHT22;1441;48.886;8.728;2023-02-01T06:45:32;4.90;99.90
2867;DHT22;1441;48.886;8.728;2023-02-01T06:47:58;4.90;99.90
2867;DHT22;1441;48.886;8.728;2023-02-01T06:50:26;4.90;99.90
2867;DHT22;1441;48.886;8.728;2023-02-01T06:52:51;4.80;99.90
2867;DHT22;1441;48.886;8.728;2023-02-01T06:55:17;4.90;99.90
2867;DHT22;1441;48.886;8.728;2023-02-01T06:57:42;4.90;99.90
2867;DHT22;1441;48.886;8.728;2023-02-01T07:00:08;4.90;99.90
2867;DHT22;1441;48.886;8.728;2023-02-01T07:02:34;4.90;99.90
2867;DHT22;1441;48.886;8.728;2023-02-01T07:05:00;5.00;99.90
2867;DHT22;1441;48.886;8.728;2023-02-01T07:07:25;5.00;99.90
2867;DHT22;1441;48.886;8.728;2023-02-01T07:09:51;5.00;99.90
2867;DHT22;1441;48.886;8.728;2023-02-01T07:12:16;5.00;99.90
2867;DHT22;1441;48.886;8.728;2023-02-01T07:14:43;5.00;99.90
2867;DHT22;1441;48.886;8.728;2023-02-01T07:17:09;5.00;99.90
2867;DHT22;1441;48.886;8.728;2023-02-01T07:19:35;5.00;99.90
2867;DHT22;1441;48.886;8.728;2023-02-01T07:22:00;5.00;99.90
2867;DHT22;1441;48.886;8.728;2023-02-01T07:24:26;5.10;99.90
2867;DHT22;1441;48.886;8.728;2023-02-01T07:26:51;5.10;99.90
2867;DHT22;1441;48.886;8.728;2023-02-01T07:29:18;5.10;99.90
2867;DHT22;1441;48.886;8.728;2023-02-01T07:31:44;5.10;99.90
2867;DHT22;1441;48.886;8.728;2023-02-01T07:34:10;5.10;99.90
2867;DHT22;1441;48.886;8.728;2023-02-01T07:36:35;5.10;99.90
2867;DHT22;1441;48.886;8.728;2023-02-01T07:39:02;5.10;99.90
2867;DHT22;1441;48.886;8.728;2023-02-01T07:41:28;5.10;99.90
2867;DHT22;1441;48.886;8.728;2023-02-01T07:43:55;5.20;99.90
2867;DHT22;1441;48.886;8.728;2023-02-01T07:46:21;5.10;99.90
2867;DHT22;1441;48.886;8.728;2023-02-01T07:48:46;5.20;99.90
2867;DHT22;1441;48.886;8.728;2023-02-01T07:51:14;5.10;99.90
2867;DHT22;1441;48.886;8.728;2023-02-01T07:53:41;5.10;99.90
2867;DHT22;1441;48.886;8.728;2023-02-01T07:56:17;5.20;99.90
2867;DHT22;1441;48.886;8.728;2023-02-01T07:58:47;5.20;99.90
2867;DHT22;1441;48.886;8.728;2023-02-01T08:01:15;5.20;99.90
2867;DHT22;1441;48.886;8.728;2023-02-01T08:03:52;5.10;99.90
2867;DHT22;1441;48.886;8.728;2023-02-01T08:06:18;5.10;99.90
2867;DHT22;1441;48.886;8.728;2023-02-01T08:08:48;5.10;99.90
2867;DHT22;1441;48.886;8.728;2023-02-01T08:11:15;5.20;99.90
2867;DHT22;1441;48.886;8.728;2023-02-01T08:13:42;5.20;99.90
2867;DHT22;1441;48.886;8.728;2023-02-01T08:16:09;5.30;99.90
2867;DHT22;1441;48.886;8.728;2023-02-01T08:18:36;5.30;99.90
2867;DHT22;1441;48.886;8.728;2023-02-01T08:21:06;5.30;99.90
2867;DHT22;1441;48.886;8.728;2023-02-01T08:23:33;5.50;99.90
2867;DHT22;1441;48.886;8.728;2023-02-01T08:26:20;5.50;99.90
2867;DHT22;1441;48.886;8.728;2023-02-01T08:28:49;5.60;99.50
2867;DHT22;1441;48.886;8.728;2023-02-01T08:31:16;5.70;99.60
2867;DHT22;1441;48.886;8.728;2023-02-01T08:33:44;5.80;99.40
2867;DHT22;1441;48.886;8.728;2023-02-01T08:36:12;5.70;99.20
2867;DHT22;1441;48.886;8.728;2023-02-01T08:38:39;5.70;99.30
2867;DHT22;1441;48.886;8.728;2023-02-01T08:41:07;5.70;99.40
2867;DHT22;1441;48.886;8.728;2023-02-01T08:43:33;5.70;99.70
2867;DHT22;1441;48.886;8.728;2023-02-01T08:45:59;5.60;99.90
2867;DHT22;1441;48.886;8.728;2023-02-01T08:48:24;5.60;99.90
2867;DHT22;1441;48.886;8.728;2023-02-01T08:50:50;5.50;99.90
2867;DHT22;1441;48.886;8.728;2023-02-01T08:53:15;5.50;99.90
2867;DHT22;1441;48.886;8.728;2023-02-01T08:55:41;5.40;99.90
2867;DHT22;1441;48.886;8.728;2023-02-01T08:58:07;5.40;99.90
2867;DHT22;1441;48.886;8.728;2023-02-01T09:00:32;5.40;99.90
2867;DHT22;1441;48.886;8.728;2023-02-01T09:02:58;5.40;99.90
2867;DHT22;1441;48.886;8.728;2023-02-01T09:05:24;5.50;99.90
2867;DHT22;1441;48.886;8.728;2023-02-01T09:07:52;5.50;99.90
2867;DHT22;1441;48.886;8.728;2023-02-01T09:10:18;5.60;99.80
2867;DHT22;1441;48.886;8.728;2023-02-01T09:12:44;5.70;99.70
2867;DHT22;1441;48.886;8.728;2023-02-01T09:15:09;5.70;99.60
2867;DHT22;1441;48.886;8.728;2023-02-01T09:17:35;5.80;98.70
2867;DHT22;1441;48.886;8.728;2023-02-01T09:20:01;5.90;98.20
2867;DHT22;1441;48.886;8.728;2023-02-01T09:22:27;5.90;97.40
2867;DHT22;1441;48.886;8.728;2023-02-01T09:24:53;6.00;97.40
2867;DHT22;1441;48.886;8.728;2023-02-01T09:27:19;6.00;97.70
2867;DHT22;1441;48.886;8.728;2023-02-01T09:29:44;6.20;97.20
2867;DHT22;1441;48.886;8.728;2023-02-01T09:32:10;6.30;96.70
2867;DHT22;1441;48.886;8.728;2023-02-01T09:34:35;6.20;97.10
2867;DHT22;1441;48.886;8.728;2023-02-01T09:37:01;6.30;96.40
2867;DHT22;1441;48.886;8.728;2023-02-01T09:39:27;6.10;96.40
2867;DHT22;1441;48.886;8.728;2023-02-01T09:47:20;6.10;96.00
2867;DHT22;1441;48.886;8.728;2023-02-01T09:50:09;6.20;96.20
2867;DHT22;1441;48.886;8.728;2023-02-01T09:52:42;6.10;95.90
2867;DHT22;1441;48.886;8.728;2023-02-01T09:55:20;6.20;96.30
2867;DHT22;1441;48.886;8.728;2023-02-01T09:57:53;6.20;96.10
2867;DHT22;1441;48.886;8.728;2023-02-01T10:00:28;6.20;95.70
2867;DHT22;1441;48.886;8.728;2023-02-01T10:02:55;6.20;95.90
2867;DHT22;1441;48.886;8.728;2023-02-01T10:05:38;6.30;95.20
2867;DHT22;1441;48.886;8.728;2023-02-01T10:08:23;6.40;95.10
2867;DHT22;1441;48.886;8.728;2023-02-01T10:10:52;6.40;94.50
2867;DHT22;1441;48.886;8.728;2023-02-01T10:13:54;6.40;94.50
2867;DHT22;1441;48.886;8.728;2023-02-01T10:16:30;6.40;95.00
2867;DHT22;1441;48.886;8.728;2023-02-01T10:21:56;6.30;95.80
2867;DHT22;1441;48.886;8.728;2023-02-01T10:24:37;6.20;95.70
2867;DHT22;1441;48.886;8.728;2023-02-01T10:27:23;6.10;95.20
2867;DHT22;1441;48.886;8.728;2023-02-01T10:29:58;6.10;95.70
2867;DHT22;1441;48.886;8.728;2023-02-01T10:32:34;6.20;95.70
2867;DHT22;1441;48.886;8.728;2023-02-01T10:35:04;6.30;95.10
2867;DHT22;1441;48.886;8.728;2023-02-01T10:37:34;6.40;94.90
2867;DHT22;1441;48.886;8.728;2023-02-01T10:42:48;6.50;94.40
2867;DHT22;1441;48.886;8.728;2023-02-01T10:45:20;6.40;93.80
2867;DHT22;1441;48.886;8.728;2023-02-01T10:47:49;6.40;93.90
2867;DHT22;1441;48.886;8.728;2023-02-01T10:53:30;6.60;93.70
2867;DHT22;1441;48.886;8.728;2023-02-01T10:55:57;6.50;93.90
2867;DHT22;1441;48.886;8.728;2023-02-01T10:58:31;6.40;93.80
2867;DHT22;1441;48.886;8.728;2023-02-01T11:01:02;6.40;94.30
2867;DHT22;1441;48.886;8.728;2023-02-01T11:03:37;6.30;93.30
2867;DHT22;1441;48.886;8.728;2023-02-01T11:06:31;6.30;93.60
2867;DHT22;1441;48.886;8.728;2023-02-01T11:09:01;6.50;92.90
2867;DHT22;1441;48.886;8.728;2023-02-01T11:14:38;6.50;93.30
2867;DHT22;1441;48.886;8.728;2023-02-01T11:17:26;6.40;93.30
2867;DHT22;1441;48.886;8.728;2023-02-01T11:20:09;6.50;93.30
2867;DHT22;1441;48.886;8.728;2023-02-01T11:22:37;6.50;93.00
2867;DHT22;1441;48.886;8.728;2023-02-01T11:25:09;6.60;92.90
2867;DHT22;1441;48.886;8.728;2023-02-01T11:27:35;6.70;90.90
2867;DHT22;1441;48.886;8.728;2023-02-01T11:30:01;6.70;91.50
2867;DHT22;1441;48.886;8.728;2023-02-01T11:32:30;6.80;92.00
2867;DHT22;1441;48.886;8.728;2023-02-01T11:35:01;6.80;90.80
2867;DHT22;1441;48.886;8.728;2023-02-01T11:37:39;6.80;91.30
2867;DHT22;1441;48.886;8.728;2023-02-01T11:43:23;6.60;91.10
2867;DHT22;1441;48.886;8.728;2023-02-01T11:46:00;6.60;91.90
2867;DHT22;1441;48.886;8.728;2023-02-01T11:48:29;6.60;91.10
2867;DHT22;1441;48.886;8.728;2023-02-01T11:51:24;6.60;91.70
2867;DHT22;1441;48.886;8.728;2023-02-01T11:54:02;6.40;91.90
2867;DHT22;1441;48.886;8.728;2023-02-01T11:56:36;6.40;92.10
2867;DHT22;1441;48.886;8.728;2023-02-01T12:12:28;6.70;91.10
2867;DHT22;1441;48.886;8.728;2023-02-01T12:18:02;6.30;93.30
2867;DHT22;1441;48.886;8.728;2023-02-01T12:29:10;6.20;94.70
2867;DHT22;1441;48.886;8.728;2023-02-01T12:32:04;6.20;93.90
2867;DHT22;1441;48.886;8.728;2023-02-01T12:35:00;6.20;94.50
2867;DHT22;1441;48.886;8.728;2023-02-01T12:40:39;6.00;95.80
2867;DHT22;1441;48.886;8.728;2023-02-01T12:43:19;5.80;97.40
2867;DHT22;1441;48.886;8.728;2023-02-01T12:45:58;5.70;98.60
2867;DHT22;1441;48.886;8.728;2023-02-01T12:48:38;5.80;98.70
2867;DHT22;1441;48.886;8.728;2023-02-01T12:51:16;5.70;98.00
2867;DHT22;1441;48.886;8.728;2023-02-01T12:53:45;5.80;98.00
2867;DHT22;1441;48.886;8.728;2023-02-01T12:56:16;6.00;97.00
2867;DHT22;1441;48.886;8.728;2023-02-01T12:58:49;6.10;95.80
2867;DHT22;1441;48.886;8.728;2023-02-01T13:01:25;6.10;95.30
2867;DHT22;1441;48.886;8.728;2023-02-01T13:04:01;6.20;95.10
2867;DHT22;1441;48.886;8.728;2023-02-01T13:06:33;6.10;95.00
2867;DHT22;1441;48.886;8.728;2023-02-01T13:12:04;5.90;95.50
2867;DHT22;1441;48.886;8.728;2023-02-01T13:14:44;5.90;95.50
2867;DHT22;1441;48.886;8.728;2023-02-01T13:17:22;6.00;95.10
2867;DHT22;1441;48.886;8.728;2023-02-01T13:22:43;6.00;94.90
2867;DHT22;1441;48.886;8.728;2023-02-01T13:27:35;6.00;94.70
2867;DHT22;1441;48.886;8.728;2023-02-01T13:30:12;5.90;94.90
2867;DHT22;1441;48.886;8.728;2023-02-01T13:35:54;5.80;96.00
2867;DHT22;1441;48.886;8.728;2023-02-01T13:43:51;5.80;98.00
2867;DHT22;1441;48.886;8.728;2023-02-01T13:46:18;5.80;98.30
2867;DHT22;1441;48.886;8.728;2023-02-01T13:48:53;5.80;98.40
2867;DHT22;1441;48.886;8.728;2023-02-01T13:51:37;5.80;97.60
2867;DHT22;1441;48.886;8.728;2023-02-01T13:54:06;5.90;97.30
2867;DHT22;1441;48.886;8.728;2023-02-01T13:56:41;5.80;96.90
2867;DHT22;1441;48.886;8.728;2023-02-01T13:59:35;5.80;97.40
2867;DHT22;1441;48.886;8.728;2023-02-01T14:02:45;5.90;96.50
2867;DHT22;1441;48.886;8.728;2023-02-01T14:10:55;5.90;97.60
2867;DHT22;1441;48.886;8.728;2023-02-01T14:13:33;5.90;97.20
2867;DHT22;1441;48.886;8.728;2023-02-01T14:23:43;5.90;96.10
2867;DHT22;1441;48.886;8.728;2023-02-01T14:26:13;5.90;95.70
2867;DHT22;1441;48.886;8.728;2023-02-01T14:28:51;5.90;96.00
2867;DHT22;1441;48.886;8.728;2023-02-01T14:34:13;5.90;95.90
2867;DHT22;1441;48.886;8.728;2023-02-01T14:42:22;6.00;95.30
2867;DHT22;1441;48.886;8.728;2023-02-01T14:44:50;6.00;95.30
2867;DHT22;1441;48.886;8.728;2023-02-01T14:52:44;6.00;93.10
2867;DHT22;1441;48.886;8.728;2023-02-01T14:55:18;6.00;94.10
2867;DHT22;1441;48.886;8.728;2023-02-01T14:57:47;6.00;93.90
2867;DHT22;1441;48.886;8.728;2023-02-01T15:00:22;6.00;93.40
2867;DHT22;1441;48.886;8.728;2023-02-01T15:02:49;6.10;93.40
2867;DHT22;1441;48.886;8.728;2023-02-01T15:07:47;6.20;92.70
2867;DHT22;1441;48.886;8.728;2023-02-01T15:10:12;6.10;92.50
2867;DHT22;1441;48.886;8.728;2023-02-01T15:12:40;6.10;92.50
2867;DHT22;1441;48.886;8.728;2023-02-01T15:17:38;6.10;93.00
2867;DHT22;1441;48.886;8.728;2023-02-01T15:20:11;6.00;92.90
2867;DHT22;1441;48.886;8.728;2023-02-01T15:22:37;6.00;93.20
2867;DHT22;1441;48.886;8.728;2023-02-01T15:25:03;5.90;93.00
2867;DHT22;1441;48.886;8.728;2023-02-01T15:27:30;5.80;92.70
2867;DHT22;1441;48.886;8.728;2023-02-01T15:30:18;5.80;93.00
2867;DHT22;1441;48.886;8.728;2023-02-01T15:32:44;5.80;92.70
2867;DHT22;1441;48.886;8.728;2023-02-01T15:41:12;5.80;93.10
2867;DHT22;1441;48.886;8.728;2023-02-01T15:44:13;5.70;93.20
2867;DHT22;1441;48.886;8.728;2023-02-01T15:46:43;5.70;93.50
2867;DHT22;1441;48.886;8.728;2023-02-01T15:49:19;5.70;93.50
2867;DHT22;1441;48.886;8.728;2023-02-01T15:51:46;5.70;93.50
2867;DHT22;1441;48.886;8.728;2023-02-01T15:54:17;5.70;93.20
2867;DHT22;1441;48.886;8.728;2023-02-01T15:56:50;5.70;92.80
2867;DHT22;1441;48.886;8.728;2023-02-01T15:59:20;5.70;92.70
2867;DHT22;1441;48.886;8.728;2023-02-01T16:01:47;5.70;92.60
2867;DHT22;1441;48.886;8.728;2023-02-01T16:09:16;5.80;92.60
2867;DHT22;1441;48.886;8.728;2023-02-01T16:12:02;5.80;92.60
2867;DHT22;1441;48.886;8.728;2023-02-01T16:14:29;5.80;92.40
2867;DHT22;1441;48.886;8.728;2023-02-01T16:16:57;5.70;92.50
2867;DHT22;1441;48.886;8.728;2023-02-01T16:19:23;5.70;92.60
2867;DHT22;1441;48.886;8.728;2023-02-01T16:21:54;5.70;93.00
2867;DHT22;1441;48.886;8.728;2023-02-01T16:24:21;5.70;93.10
2867;DHT22;1441;48.886;8.728;2023-02-01T16:26:48;5.70;92.80
2867;DHT22;1441;48.886;8.728;2023-02-01T16:29:14;5.60;93.20
2867;DHT22;1441;48.886;8.728;2023-02-01T16:31:40;5.60;92.90
2867;DHT22;1441;48.886;8.728;2023-02-01T16:34:13;5.60;92.80
2867;DHT22;1441;48.886;8.728;2023-02-01T16:36:42;5.60;92.80
2867;DHT22;1441;48.886;8.728;2023-02-01T16:39:11;5.50;93.40
2867;DHT22;1441;48.886;8.728;2023-02-01T16:41:36;5.50;93.40
2867;DHT22;1441;48.886;8.728;2023-02-01T16:44:02;5.60;92.90
2867;DHT22;1441;48.886;8.728;2023-02-01T16:46:32;5.60;93.00
2867;DHT22;1441;48.886;8.728;2023-02-01T16:48:59;5.60;92.50
2867;DHT22;1441;48.886;8.728;2023-02-01T16:51:28;5.60;92.80
2867;DHT22;1441;48.886;8.728;2023-02-01T16:53:56;5.60;92.50
2867;DHT22;1441;48.886;8.728;2023-02-01T16:56:24;5.60;92.10
2867;DHT22;1441;48.886;8.728;2023-02-01T16:58:51;5.60;92.60
2867;DHT22;1441;48.886;8.728;2023-02-01T17:01:18;5.60;92.70
2867;DHT22;1441;48.886;8.728;2023-02-01T17:03:44;5.70;92.80
2867;DHT22;1441;48.886;8.728;2023-02-01T17:06:13;5.70;92.80
2867;DHT22;1441;48.886;8.728;2023-02-01T17:08:42;5.70;92.50
2867;DHT22;1441;48.886;8.728;2023-02-01T17:11:10;5.70;92.80
2867;DHT22;1441;48.886;8.728;2023-02-01T17:13:36;5.70;92.70
2867;DHT22;1441;48.886;8.728;2023-02-01T17:16:05;5.70;92.90
2867;DHT22;1441;48.886;8.728;2023-02-01T17:18:34;5.70;93.00
2867;DHT22;1441;48.886;8.728;2023-02-01T17:21:02;5.70;92.80
2867;DHT22;1441;48.886;8.728;2023-02-01T17:23:29;5.70;92.80
2867;DHT22;1441;48.886;8.728;2023-02-01T17:25:56;5.60;92.80
2867;DHT22;1441;48.886;8.728;2023-02-01T17:28:21;5.60;92.60
2867;DHT22;1441;48.886;8.728;2023-02-01T17:30:47;5.60;93.00
2867;DHT22;1441;48.886;8.728;2023-02-01T17:33:26;5.60;93.20
2867;DHT22;1441;48.886;8.728;2023-02-01T17:35:54;5.60;93.40
2867;DHT22;1441;48.886;8.728;2023-02-01T17:38:20;5.50;94.20
2867;DHT22;1441;48.886;8.728;2023-02-01T17:40:45;5.40;94.50
2867;DHT22;1441;48.886;8.728;2023-02-01T17:43:13;5.50;94.30
2867;DHT22;1441;48.886;8.728;2023-02-01T17:46:10;5.60;94.20
2867;DHT22;1441;48.886;8.728;2023-02-01T17:48:36;5.60;93.90
2867;DHT22;1441;48.886;8.728;2023-02-01T17:51:02;5.60;93.90
2867;DHT22;1441;48.886;8.728;2023-02-01T17:53:28;5.70;93.90
2867;DHT22;1441;48.886;8.728;2023-02-01T17:55:54;5.70;94.30
2867;DHT22;1441;48.886;8.728;2023-02-01T17:58:23;5.60;94.60
2867;DHT22;1441;48.886;8.728;2023-02-01T18:00:49;5.60;94.60
2867;DHT22;1441;48.886;8.728;2023-02-01T18:05:43;5.60;94.60
2867;DHT22;1441;48.886;8.728;2023-02-01T18:08:25;5.60;94.40
2867;DHT22;1441;48.886;8.728;2023-02-01T18:10:57;5.50;94.40
2867;DHT22;1441;48.886;8.728;2023-02-01T18:13:27;5.40;94.70
2867;DHT22;1441;48.886;8.728;2023-02-01T18:15:53;5.50;94.20
2867;DHT22;1441;48.886;8.728;2023-02-01T18:18:20;5.50;94.20
2867;DHT22;1441;48.886;8.728;2023-02-01T18:20:46;5.50;94.00
2867;DHT22;1441;48.886;8.728;2023-02-01T18:23:21;5.60;93.60
2867;DHT22;1441;48.886;8.728;2023-02-01T18:25:47;5.60;93.10
2867;DHT22;1441;48.886;8.728;2023-02-01T18:28:14;5.70;92.70
2867;DHT22;1441;48.886;8.728;2023-02-01T18:30:41;5.70;92.30
2867;DHT22;1441;48.886;8.728;2023-02-01T18:33:10;5.70;91.80
2867;DHT22;1441;48.886;8.728;2023-02-01T18:35:37;5.80;91.60
2867;DHT22;1441;48.886;8.728;2023-02-01T18:38:02;5.80;91.50
2867;DHT22;1441;48.886;8.728;2023-02-01T18:40:34;5.80;91.70
2867;DHT22;1441;48.886;8.728;2023-02-01T18:43:00;5.80;91.40
2867;DHT22;1441;48.886;8.728;2023-02-01T18:45:29;5.80;91.20